sensor_id;sensor_type;location;lat;lon;timestamp;P1;durP1;ratioP1;P2;durP2;ratioP2
55007;SDS011;40902;45.116;21.296;2022-12-07T00:00:42;18.08;;;10.32;;
55007;SDS011;40902;45.116;21.296;2022-12-07T00:03:08;18.48;;;11.60;;
55007;SDS011;40902;45.116;21.296;2022-12-07T00:05:34;18.77;;;11.07;;
55007;SDS011;40902;45.116;21.296;2022-12-07T00:07:59;19.23;;;11.93;;
55007;SDS011;40902;45.116;21.296;2022-12-07T00:10:25;19.55;;;11.30;;
55007;SDS011;40902;45.116;21.296;2022-12-07T00:12:51;18.42;;;10.85;;
55007;SDS011;40902;45.116;21.296;2022-12-07T00:15:16;18.10;;;10.73;;
55007;SDS011;40902;45.116;21.296;2022-12-07T00:17:42;17.95;;;10.73;;
55007;SDS011;40902;45.116;21.296;2022-12-07T00:20:08;18.20;;;10.45;;
55007;SDS011;40902;45.116;21.296;2022-12-07T00:22:34;16.02;;;9.95;;
55007;SDS011;40902;45.116;21.296;2022-12-07T00:25:00;15.45;;;9.07;;
55007;SDS011;40902;45.116;21.296;2022-12-07T00:27:26;15.68;;;8.15;;
55007;SDS011;40902;45.116;21.296;2022-12-07T00:29:52;14.07;;;8.55;;
55007;SDS011;40902;45.116;21.296;2022-12-07T00:32:18;13.05;;;8.63;;
55007;SDS011;40902;45.116;21.296;2022-12-07T00:34:44;14.93;;;8.45;;
55007;SDS011;40902;45.116;21.296;2022-12-07T00:37:09;19.33;;;8.50;;
55007;SDS011;40902;45.116;21.296;2022-12-07T00:39:35;14.88;;;9.02;;
55007;SDS011;40902;45.116;21.296;2022-12-07T00:42:01;15.55;;;8.85;;
55007;SDS011;40902;45.116;21.296;2022-12-07T00:44:26;14.88;;;8.43;;
55007;SDS011;40902;45.116;21.296;2022-12-07T00:46:52;13.27;;;8.23;;
55007;SDS011;40902;45.116;21.296;2022-12-07T00:49:18;13.55;;;8.68;;
55007;SDS011;40902;45.116;21.296;2022-12-07T00:51:43;14.30;;;8.65;;
55007;SDS011;40902;45.116;21.296;2022-12-07T00:54:09;14.85;;;8.60;;
55007;SDS011;40902;45.116;21.296;2022-12-07T00:56:35;15.02;;;8.93;;
55007;SDS011;40902;45.116;21.296;2022-12-07T00:59:01;14.82;;;8.30;;
55007;SDS011;40902;45.116;21.296;2022-12-07T01:01:30;13.38;;;8.65;;
55007;SDS011;40902;45.116;21.296;2022-12-07T01:03:57;16.27;;;9.80;;
55007;SDS011;40902;45.116;21.296;2022-12-07T01:06:26;13.80;;;8.70;;
55007;SDS011;40902;45.116;21.296;2022-12-07T01:08:52;15.98;;;9.02;;
55007;SDS011;40902;45.116;21.296;2022-12-07T01:11:20;13.02;;;8.45;;
55007;SDS011;40902;45.116;21.296;2022-12-07T01:13:49;14.70;;;9.95;;
55007;SDS011;40902;45.116;21.296;2022-12-07T01:16:16;13.25;;;8.70;;
55007;SDS011;40902;45.116;21.296;2022-12-07T01:18:45;18.38;;;8.93;;
55007;SDS011;40902;45.116;21.296;2022-12-07T01:21:14;13.43;;;8.98;;
55007;SDS011;40902;45.116;21.296;2022-12-07T01:23:42;16.95;;;9.25;;
55007;SDS011;40902;45.116;21.296;2022-12-07T01:26:10;16.33;;;10.05;;
55007;SDS011;40902;45.116;21.296;2022-12-07T01:28:38;18.25;;;10.10;;
55007;SDS011;40902;45.116;21.296;2022-12-07T01:31:05;16.80;;;9.73;;
55007;SDS011;40902;45.116;21.296;2022-12-07T01:33:33;18.35;;;9.43;;
55007;SDS011;40902;45.116;21.296;2022-12-07T01:36:02;17.02;;;10.20;;
55007;SDS011;40902;45.116;21.296;2022-12-07T01:38:38;18.33;;;10.00;;
55007;SDS011;40902;45.116;21.296;2022-12-07T01:41:04;19.73;;;10.55;;
55007;SDS011;40902;45.116;21.296;2022-12-07T01:43:31;17.90;;;10.60;;
55007;SDS011;40902;45.116;21.296;2022-12-07T01:45:59;20.88;;;11.43;;
55007;SDS011;40902;45.116;21.296;2022-12-07T01:51:02;20.35;;;12.38;;
55007;SDS011;40902;45.116;21.296;2022-12-07T01:53:33;20.90;;;12.30;;
55007;SDS011;40902;45.116;21.296;2022-12-07T01:56:02;25.48;;;14.80;;
55007;SDS011;40902;45.116;21.296;2022-12-07T01:58:28;24.60;;;14.52;;
55007;SDS011;40902;45.116;21.296;2022-12-07T02:00:54;18.90;;;11.60;;
55007;SDS011;40902;45.116;21.296;2022-12-07T02:03:34;24.27;;;13.60;;
55007;SDS011;40902;45.116;21.296;2022-12-07T02:06:05;22.27;;;13.23;;
55007;SDS011;40902;45.116;21.296;2022-12-07T02:08:32;22.77;;;12.88;;
55007;SDS011;40902;45.116;21.296;2022-12-07T02:10:59;25.83;;;13.25;;
55007;SDS011;40902;45.116;21.296;2022-12-07T02:13:27;28.10;;;14.48;;
55007;SDS011;40902;45.116;21.296;2022-12-07T02:21:51;30.27;;;14.68;;
55007;SDS011;40902;45.116;21.296;2022-12-07T02:24:48;28.38;;;15.80;;
55007;SDS011;40902;45.116;21.296;2022-12-07T02:30:15;28.38;;;16.92;;
55007;SDS011;40902;45.116;21.296;2022-12-07T02:35:18;28.17;;;15.27;;
55007;SDS011;40902;45.116;21.296;2022-12-07T02:37:58;34.15;;;17.50;;
55007;SDS011;40902;45.116;21.296;2022-12-07T02:40:27;34.55;;;16.60;;
55007;SDS011;40902;45.116;21.296;2022-12-07T02:43:14;33.83;;;16.17;;
55007;SDS011;40902;45.116;21.296;2022-12-07T02:45:48;31.38;;;16.02;;
55007;SDS011;40902;45.116;21.296;2022-12-07T02:48:17;33.92;;;16.33;;
55007;SDS011;40902;45.116;21.296;2022-12-07T02:50:48;31.27;;;17.13;;
55007;SDS011;40902;45.116;21.296;2022-12-07T02:53:31;32.03;;;16.90;;
55007;SDS011;40902;45.116;21.296;2022-12-07T02:56:20;34.78;;;16.58;;
55007;SDS011;40902;45.116;21.296;2022-12-07T03:06:53;35.50;;;18.08;;
55007;SDS011;40902;45.116;21.296;2022-12-07T03:12:32;36.17;;;17.47;;
55007;SDS011;40902;45.116;21.296;2022-12-07T03:15:31;41.17;;;18.98;;
55007;SDS011;40902;45.116;21.296;2022-12-07T03:18:02;39.55;;;18.98;;
55007;SDS011;40902;45.116;21.296;2022-12-07T03:20:30;35.22;;;17.17;;
55007;SDS011;40902;45.116;21.296;2022-12-07T03:22:58;39.35;;;19.42;;
55007;SDS011;40902;45.116;21.296;2022-12-07T03:25:25;39.67;;;18.15;;
55007;SDS011;40902;45.116;21.296;2022-12-07T03:30:22;42.40;;;18.58;;
55007;SDS011;40902;45.116;21.296;2022-12-07T03:40:48;34.80;;;17.10;;
55007;SDS011;40902;45.116;21.296;2022-12-07T03:43:17;32.95;;;15.82;;
55007;SDS011;40902;45.116;21.296;2022-12-07T03:45:46;34.22;;;16.02;;
55007;SDS011;40902;45.116;21.296;2022-12-07T03:48:47;36.45;;;16.80;;
55007;SDS011;40902;45.116;21.296;2022-12-07T03:51:26;35.10;;;17.40;;
55007;SDS011;40902;45.116;21.296;2022-12-07T03:54:05;33.33;;;15.82;;
55007;SDS011;40902;45.116;21.296;2022-12-07T03:56:59;36.50;;;16.35;;
55007;SDS011;40902;45.116;21.296;2022-12-07T03:59:27;34.83;;;17.00;;
55007;SDS011;40902;45.116;21.296;2022-12-07T04:01:56;33.38;;;17.30;;
55007;SDS011;40902;45.116;21.296;2022-12-07T04:04:26;38.92;;;18.17;;
55007;SDS011;40902;45.116;21.296;2022-12-07T04:06:53;33.00;;;15.32;;
55007;SDS011;40902;45.116;21.296;2022-12-07T04:09:19;34.05;;;15.93;;
55007;SDS011;40902;45.116;21.296;2022-12-07T04:11:45;32.35;;;16.08;;
55007;SDS011;40902;45.116;21.296;2022-12-07T04:14:11;31.00;;;15.00;;
55007;SDS011;40902;45.116;21.296;2022-12-07T04:16:50;28.85;;;13.40;;
55007;SDS011;40902;45.116;21.296;2022-12-07T04:19:18;24.10;;;13.05;;
55007;SDS011;40902;45.116;21.296;2022-12-07T04:21:45;23.23;;;11.93;;
55007;SDS011;40902;45.116;21.296;2022-12-07T04:24:12;21.85;;;11.68;;
55007;SDS011;40902;45.116;21.296;2022-12-07T04:26:39;20.90;;;12.38;;
55007;SDS011;40902;45.116;21.296;2022-12-07T04:29:06;20.77;;;11.10;;
55007;SDS011;40902;45.116;21.296;2022-12-07T04:31:32;24.48;;;12.65;;
55007;SDS011;40902;45.116;21.296;2022-12-07T04:33:57;21.65;;;11.70;;
55007;SDS011;40902;45.116;21.296;2022-12-07T04:36:24;24.67;;;12.50;;
55007;SDS011;40902;45.116;21.296;2022-12-07T04:38:49;30.23;;;14.40;;
55007;SDS011;40902;45.116;21.296;2022-12-07T04:41:17;33.17;;;16.27;;
55007;SDS011;40902;45.116;21.296;2022-12-07T04:43:43;31.08;;;14.73;;
55007;SDS011;40902;45.116;21.296;2022-12-07T04:46:10;28.55;;;14.80;;
55007;SDS011;40902;45.116;21.296;2022-12-07T04:48:36;25.08;;;13.10;;
55007;SDS011;40902;45.116;21.296;2022-12-07T04:51:02;23.83;;;14.02;;
55007;SDS011;40902;45.116;21.296;2022-12-07T04:53:28;24.42;;;12.98;;
55007;SDS011;40902;45.116;21.296;2022-12-07T04:55:54;29.30;;;13.45;;
55007;SDS011;40902;45.116;21.296;2022-12-07T04:58:20;25.92;;;13.38;;
55007;SDS011;40902;45.116;21.296;2022-12-07T05:00:45;27.00;;;13.43;;
55007;SDS011;40902;45.116;21.296;2022-12-07T05:03:12;26.88;;;13.88;;
55007;SDS011;40902;45.116;21.296;2022-12-07T05:05:39;27.65;;;14.35;;
55007;SDS011;40902;45.116;21.296;2022-12-07T05:08:06;26.63;;;13.38;;
55007;SDS011;40902;45.116;21.296;2022-12-07T05:10:32;19.67;;;11.38;;
55007;SDS011;40902;45.116;21.296;2022-12-07T05:12:58;20.00;;;11.68;;
55007;SDS011;40902;45.116;21.296;2022-12-07T05:15:23;24.25;;;13.05;;
55007;SDS011;40902;45.116;21.296;2022-12-07T05:17:49;18.95;;;11.27;;
55007;SDS011;40902;45.116;21.296;2022-12-07T05:20:17;22.23;;;13.23;;
55007;SDS011;40902;45.116;21.296;2022-12-07T05:22:43;21.20;;;12.75;;
55007;SDS011;40902;45.116;21.296;2022-12-07T05:25:08;17.17;;;10.57;;
55007;SDS011;40902;45.116;21.296;2022-12-07T05:27:34;15.68;;;10.25;;
55007;SDS011;40902;45.116;21.296;2022-12-07T05:30:00;16.52;;;10.40;;
55007;SDS011;40902;45.116;21.296;2022-12-07T05:32:25;17.92;;;10.73;;
55007;SDS011;40902;45.116;21.296;2022-12-07T05:34:51;17.38;;;10.10;;
55007;SDS011;40902;45.116;21.296;2022-12-07T05:37:19;17.35;;;10.70;;
55007;SDS011;40902;45.116;21.296;2022-12-07T05:39:45;16.00;;;10.50;;
55007;SDS011;40902;45.116;21.296;2022-12-07T05:42:11;17.80;;;10.73;;
55007;SDS011;40902;45.116;21.296;2022-12-07T05:44:37;17.55;;;10.95;;
55007;SDS011;40902;45.116;21.296;2022-12-07T05:47:03;24.35;;;13.88;;
55007;SDS011;40902;45.116;21.296;2022-12-07T05:49:29;23.90;;;13.95;;
55007;SDS011;40902;45.116;21.296;2022-12-07T05:51:54;38.35;;;20.73;;
55007;SDS011;40902;45.116;21.296;2022-12-07T05:54:20;45.83;;;24.30;;
55007;SDS011;40902;45.116;21.296;2022-12-07T05:56:46;29.77;;;16.58;;
55007;SDS011;40902;45.116;21.296;2022-12-07T05:59:11;32.85;;;17.85;;
55007;SDS011;40902;45.116;21.296;2022-12-07T06:01:53;31.50;;;17.92;;
55007;SDS011;40902;45.116;21.296;2022-12-07T06:04:21;30.17;;;17.05;;
55007;SDS011;40902;45.116;21.296;2022-12-07T06:06:48;27.48;;;15.40;;
55007;SDS011;40902;45.116;21.296;2022-12-07T06:09:14;26.35;;;15.10;;
55007;SDS011;40902;45.116;21.296;2022-12-07T06:11:40;25.85;;;15.13;;
55007;SDS011;40902;45.116;21.296;2022-12-07T06:14:24;23.70;;;14.10;;
55007;SDS011;40902;45.116;21.296;2022-12-07T06:16:50;31.40;;;16.40;;
55007;SDS011;40902;45.116;21.296;2022-12-07T06:19:16;41.30;;;19.60;;
55007;SDS011;40902;45.116;21.296;2022-12-07T06:21:42;28.70;;;15.07;;
55007;SDS011;40902;45.116;21.296;2022-12-07T06:24:12;28.70;;;15.48;;
55007;SDS011;40902;45.116;21.296;2022-12-07T06:26:39;26.15;;;15.90;;
55007;SDS011;40902;45.116;21.296;2022-12-07T06:29:05;23.95;;;14.43;;
55007;SDS011;40902;45.116;21.296;2022-12-07T06:31:30;20.70;;;13.38;;
55007;SDS011;40902;45.116;21.296;2022-12-07T06:34:02;20.30;;;12.55;;
55007;SDS011;40902;45.116;21.296;2022-12-07T06:36:33;21.08;;;12.30;;
55007;SDS011;40902;45.116;21.296;2022-12-07T06:38:59;19.23;;;11.93;;
55007;SDS011;40902;45.116;21.296;2022-12-07T06:41:25;15.80;;;10.75;;
55007;SDS011;40902;45.116;21.296;2022-12-07T06:43:51;17.98;;;10.85;;
55007;SDS011;40902;45.116;21.296;2022-12-07T06:46:16;20.33;;;11.55;;
55007;SDS011;40902;45.116;21.296;2022-12-07T06:48:42;27.08;;;12.52;;
55007;SDS011;40902;45.116;21.296;2022-12-07T06:51:09;24.35;;;13.45;;
55007;SDS011;40902;45.116;21.296;2022-12-07T06:53:35;23.10;;;13.73;;
55007;SDS011;40902;45.116;21.296;2022-12-07T06:56:02;21.40;;;12.20;;
55007;SDS011;40902;45.116;21.296;2022-12-07T06:58:29;20.60;;;12.43;;
55007;SDS011;40902;45.116;21.296;2022-12-07T07:00:55;20.23;;;12.73;;
55007;SDS011;40902;45.116;21.296;2022-12-07T07:03:20;20.45;;;12.98;;
55007;SDS011;40902;45.116;21.296;2022-12-07T07:05:46;19.77;;;12.50;;
55007;SDS011;40902;45.116;21.296;2022-12-07T07:08:13;22.60;;;13.18;;
55007;SDS011;40902;45.116;21.296;2022-12-07T07:10:39;19.95;;;13.10;;
55007;SDS011;40902;45.116;21.296;2022-12-07T07:13:05;21.10;;;13.07;;
55007;SDS011;40902;45.116;21.296;2022-12-07T07:15:30;19.60;;;12.07;;
55007;SDS011;40902;45.116;21.296;2022-12-07T07:17:57;18.98;;;11.32;;
55007;SDS011;40902;45.116;21.296;2022-12-07T07:20:22;19.60;;;12.07;;
55007;SDS011;40902;45.116;21.296;2022-12-07T07:22:48;23.23;;;14.93;;
55007;SDS011;40902;45.116;21.296;2022-12-07T07:25:15;29.23;;;17.42;;
55007;SDS011;40902;45.116;21.296;2022-12-07T07:27:41;26.27;;;16.95;;
55007;SDS011;40902;45.116;21.296;2022-12-07T07:30:07;23.98;;;14.90;;
55007;SDS011;40902;45.116;21.296;2022-12-07T07:32:37;22.08;;;13.50;;
55007;SDS011;40902;45.116;21.296;2022-12-07T07:35:03;25.27;;;18.63;;
55007;SDS011;40902;45.116;21.296;2022-12-07T07:37:29;22.85;;;14.18;;
55007;SDS011;40902;45.116;21.296;2022-12-07T07:39:55;23.02;;;13.77;;
55007;SDS011;40902;45.116;21.296;2022-12-07T07:42:21;24.20;;;14.40;;
55007;SDS011;40902;45.116;21.296;2022-12-07T07:44:48;31.08;;;20.50;;
55007;SDS011;40902;45.116;21.296;2022-12-07T07:47:14;27.13;;;15.35;;
55007;SDS011;40902;45.116;21.296;2022-12-07T07:49:39;25.25;;;14.45;;
55007;SDS011;40902;45.116;21.296;2022-12-07T07:52:05;27.65;;;17.40;;
55007;SDS011;40902;45.116;21.296;2022-12-07T07:54:31;23.10;;;14.43;;
55007;SDS011;40902;45.116;21.296;2022-12-07T07:56:57;24.08;;;16.20;;
55007;SDS011;40902;45.116;21.296;2022-12-07T07:59:23;25.67;;;17.85;;
55007;SDS011;40902;45.116;21.296;2022-12-07T08:01:49;21.95;;;14.63;;
55007;SDS011;40902;45.116;21.296;2022-12-07T08:04:15;24.25;;;14.48;;
55007;SDS011;40902;45.116;21.296;2022-12-07T08:06:41;24.48;;;14.82;;
55007;SDS011;40902;45.116;21.296;2022-12-07T08:09:07;30.45;;;17.98;;
55007;SDS011;40902;45.116;21.296;2022-12-07T08:11:33;31.45;;;20.60;;
55007;SDS011;40902;45.116;21.296;2022-12-07T08:14:01;28.85;;;17.73;;
55007;SDS011;40902;45.116;21.296;2022-12-07T08:16:27;26.17;;;15.80;;
55007;SDS011;40902;45.116;21.296;2022-12-07T08:18:53;28.23;;;16.60;;
55007;SDS011;40902;45.116;21.296;2022-12-07T08:21:18;28.27;;;15.73;;
55007;SDS011;40902;45.116;21.296;2022-12-07T08:23:46;33.08;;;20.30;;
55007;SDS011;40902;45.116;21.296;2022-12-07T08:26:13;26.48;;;15.85;;
55007;SDS011;40902;45.116;21.296;2022-12-07T08:28:41;22.13;;;13.43;;
55007;SDS011;40902;45.116;21.296;2022-12-07T08:31:08;23.80;;;14.23;;
55007;SDS011;40902;45.116;21.296;2022-12-07T08:33:38;23.23;;;15.18;;
55007;SDS011;40902;45.116;21.296;2022-12-07T08:36:05;29.58;;;18.10;;
55007;SDS011;40902;45.116;21.296;2022-12-07T08:38:36;33.03;;;20.23;;
55007;SDS011;40902;45.116;21.296;2022-12-07T08:41:03;24.48;;;16.60;;
55007;SDS011;40902;45.116;21.296;2022-12-07T08:43:30;23.08;;;13.57;;
55007;SDS011;40902;45.116;21.296;2022-12-07T08:51:17;22.30;;;14.15;;
55007;SDS011;40902;45.116;21.296;2022-12-07T08:53:43;21.23;;;13.95;;
55007;SDS011;40902;45.116;21.296;2022-12-07T08:56:10;21.13;;;13.30;;
55007;SDS011;40902;45.116;21.296;2022-12-07T08:58:37;22.23;;;14.23;;
55007;SDS011;40902;45.116;21.296;2022-12-07T09:01:04;24.90;;;15.25;;
55007;SDS011;40902;45.116;21.296;2022-12-07T09:03:30;28.80;;;16.77;;
55007;SDS011;40902;45.116;21.296;2022-12-07T09:05:57;23.17;;;15.18;;
55007;SDS011;40902;45.116;21.296;2022-12-07T09:08:25;23.20;;;14.13;;
55007;SDS011;40902;45.116;21.296;2022-12-07T09:10:56;32.90;;;19.88;;
55007;SDS011;40902;45.116;21.296;2022-12-07T09:13:21;35.45;;;19.48;;
55007;SDS011;40902;45.116;21.296;2022-12-07T09:15:47;29.67;;;16.25;;
55007;SDS011;40902;45.116;21.296;2022-12-07T09:18:13;23.15;;;14.25;;
55007;SDS011;40902;45.116;21.296;2022-12-07T09:20:39;25.08;;;15.05;;
55007;SDS011;40902;45.116;21.296;2022-12-07T09:23:06;23.90;;;14.27;;
55007;SDS011;40902;45.116;21.296;2022-12-07T09:25:32;20.88;;;14.32;;
55007;SDS011;40902;45.116;21.296;2022-12-07T09:28:00;22.52;;;15.40;;
55007;SDS011;40902;45.116;21.296;2022-12-07T09:30:26;23.67;;;15.15;;
55007;SDS011;40902;45.116;21.296;2022-12-07T09:32:53;25.52;;;15.20;;
55007;SDS011;40902;45.116;21.296;2022-12-07T09:35:20;25.38;;;17.33;;
55007;SDS011;40902;45.116;21.296;2022-12-07T09:37:46;26.63;;;17.70;;
55007;SDS011;40902;45.116;21.296;2022-12-07T09:40:12;29.92;;;19.88;;
55007;SDS011;40902;45.116;21.296;2022-12-07T09:42:41;58.75;;;36.00;;
55007;SDS011;40902;45.116;21.296;2022-12-07T09:45:15;26.85;;;17.90;;
55007;SDS011;40902;45.116;21.296;2022-12-07T09:47:46;22.42;;;15.70;;
55007;SDS011;40902;45.116;21.296;2022-12-07T09:50:16;21.17;;;14.32;;
55007;SDS011;40902;45.116;21.296;2022-12-07T09:52:46;19.67;;;13.07;;
55007;SDS011;40902;45.116;21.296;2022-12-07T09:55:15;28.20;;;18.38;;
55007;SDS011;40902;45.116;21.296;2022-12-07T09:58:01;25.08;;;17.42;;
55007;SDS011;40902;45.116;21.296;2022-12-07T10:00:26;23.42;;;15.07;;
55007;SDS011;40902;45.116;21.296;2022-12-07T10:05:30;24.10;;;15.32;;
55007;SDS011;40902;45.116;21.296;2022-12-07T10:07:56;19.88;;;13.60;;
55007;SDS011;40902;45.116;21.296;2022-12-07T10:10:27;22.52;;;15.02;;
55007;SDS011;40902;45.116;21.296;2022-12-07T10:12:58;26.30;;;18.33;;
55007;SDS011;40902;45.116;21.296;2022-12-07T10:23:27;20.27;;;14.70;;
55007;SDS011;40902;45.116;21.296;2022-12-07T10:25:54;23.63;;;15.82;;
55007;SDS011;40902;45.116;21.296;2022-12-07T10:28:20;22.05;;;15.38;;
55007;SDS011;40902;45.116;21.296;2022-12-07T10:30:48;21.90;;;14.10;;
55007;SDS011;40902;45.116;21.296;2022-12-07T10:33:51;20.98;;;13.55;;
55007;SDS011;40902;45.116;21.296;2022-12-07T10:41:28;21.80;;;14.88;;
55007;SDS011;40902;45.116;21.296;2022-12-07T10:43:55;24.85;;;14.70;;
55007;SDS011;40902;45.116;21.296;2022-12-07T11:04:49;23.50;;;14.43;;
55007;SDS011;40902;45.116;21.296;2022-12-07T11:10:38;18.40;;;11.73;;
55007;SDS011;40902;45.116;21.296;2022-12-07T11:18:26;19.98;;;12.30;;
55007;SDS011;40902;45.116;21.296;2022-12-07T11:29:20;12.05;;;7.63;;
55007;SDS011;40902;45.116;21.296;2022-12-07T11:37:43;10.97;;;7.10;;
55007;SDS011;40902;45.116;21.296;2022-12-07T11:43:05;13.98;;;9.90;;
55007;SDS011;40902;45.116;21.296;2022-12-07T11:45:35;23.05;;;9.93;;
55007;SDS011;40902;45.116;21.296;2022-12-07T11:48:10;15.52;;;11.63;;
55007;SDS011;40902;45.116;21.296;2022-12-07T11:50:39;14.25;;;9.85;;
55007;SDS011;40902;45.116;21.296;2022-12-07T11:53:18;24.05;;;14.73;;
55007;SDS011;40902;45.116;21.296;2022-12-07T11:55:50;18.88;;;13.45;;
55007;SDS011;40902;45.116;21.296;2022-12-07T12:01:06;22.55;;;14.63;;
55007;SDS011;40902;45.116;21.296;2022-12-07T12:03:54;20.38;;;11.90;;
55007;SDS011;40902;45.116;21.296;2022-12-07T12:06:26;20.63;;;13.30;;
55007;SDS011;40902;45.116;21.296;2022-12-07T12:18:04;32.65;;;19.95;;
55007;SDS011;40902;45.116;21.296;2022-12-07T12:20:51;68.93;;;38.58;;
55007;SDS011;40902;45.116;21.296;2022-12-07T12:26:05;26.95;;;16.48;;
55007;SDS011;40902;45.116;21.296;2022-12-07T12:28:38;14.13;;;7.88;;
55007;SDS011;40902;45.116;21.296;2022-12-07T12:34:10;15.50;;;9.38;;
55007;SDS011;40902;45.116;21.296;2022-12-07T12:37:13;18.05;;;11.98;;
55007;SDS011;40902;45.116;21.296;2022-12-07T12:42:49;18.58;;;11.38;;
55007;SDS011;40902;45.116;21.296;2022-12-07T12:47:57;13.07;;;8.93;;
55007;SDS011;40902;45.116;21.296;2022-12-07T12:52:56;15.52;;;9.85;;
55007;SDS011;40902;45.116;21.296;2022-12-07T12:55:48;13.13;;;9.55;;
55007;SDS011;40902;45.116;21.296;2022-12-07T12:58:31;17.43;;;11.47;;
55007;SDS011;40902;45.116;21.296;2022-12-07T13:03:57;17.73;;;10.52;;
55007;SDS011;40902;45.116;21.296;2022-12-07T13:08:49;15.60;;;10.15;;
55007;SDS011;40902;45.116;21.296;2022-12-07T13:11:29;13.00;;;8.77;;
55007;SDS011;40902;45.116;21.296;2022-12-07T13:17:01;16.65;;;11.30;;
55007;SDS011;40902;45.116;21.296;2022-12-07T13:27:38;21.40;;;12.30;;
55007;SDS011;40902;45.116;21.296;2022-12-07T13:30:17;20.85;;;12.48;;
55007;SDS011;40902;45.116;21.296;2022-12-07T13:32:55;22.55;;;13.43;;
55007;SDS011;40902;45.116;21.296;2022-12-07T13:35:29;26.92;;;15.70;;
55007;SDS011;40902;45.116;21.296;2022-12-07T13:37:56;26.15;;;15.57;;
55007;SDS011;40902;45.116;21.296;2022-12-07T13:40:23;32.92;;;17.45;;
55007;SDS011;40902;45.116;21.296;2022-12-07T13:42:57;29.95;;;15.88;;
55007;SDS011;40902;45.116;21.296;2022-12-07T13:45:29;17.50;;;10.93;;
55007;SDS011;40902;45.116;21.296;2022-12-07T13:51:02;15.40;;;8.88;;
55007;SDS011;40902;45.116;21.296;2022-12-07T13:53:29;19.15;;;10.02;;
55007;SDS011;40902;45.116;21.296;2022-12-07T13:55:56;16.75;;;9.18;;
55007;SDS011;40902;45.116;21.296;2022-12-07T13:58:23;12.15;;;7.40;;
55007;SDS011;40902;45.116;21.296;2022-12-07T14:00:50;14.75;;;8.48;;
55007;SDS011;40902;45.116;21.296;2022-12-07T14:06:02;13.15;;;8.15;;
55007;SDS011;40902;45.116;21.296;2022-12-07T14:08:50;12.23;;;7.47;;
55007;SDS011;40902;45.116;21.296;2022-12-07T14:11:30;10.73;;;6.40;;
55007;SDS011;40902;45.116;21.296;2022-12-07T14:13:59;11.30;;;7.10;;
55007;SDS011;40902;45.116;21.296;2022-12-07T14:16:28;11.00;;;7.07;;
55007;SDS011;40902;45.116;21.296;2022-12-07T14:18:55;11.77;;;8.38;;
55007;SDS011;40902;45.116;21.296;2022-12-07T14:21:32;14.25;;;9.27;;
55007;SDS011;40902;45.116;21.296;2022-12-07T14:24:04;13.93;;;8.68;;
55007;SDS011;40902;45.116;21.296;2022-12-07T14:26:33;17.08;;;10.32;;
55007;SDS011;40902;45.116;21.296;2022-12-07T14:31:48;20.33;;;14.18;;
55007;SDS011;40902;45.116;21.296;2022-12-07T14:34:13;29.48;;;20.58;;
55007;SDS011;40902;45.116;21.296;2022-12-07T14:36:39;35.45;;;20.25;;
55007;SDS011;40902;45.116;21.296;2022-12-07T14:39:05;20.08;;;12.68;;
55007;SDS011;40902;45.116;21.296;2022-12-07T14:41:30;18.25;;;11.35;;
55007;SDS011;40902;45.116;21.296;2022-12-07T14:44:15;20.67;;;13.77;;
55007;SDS011;40902;45.116;21.296;2022-12-07T14:46:41;20.92;;;12.43;;
55007;SDS011;40902;45.116;21.296;2022-12-07T14:49:06;21.42;;;14.02;;
55007;SDS011;40902;45.116;21.296;2022-12-07T14:51:32;22.60;;;13.68;;
55007;SDS011;40902;45.116;21.296;2022-12-07T14:54:00;21.13;;;13.25;;
55007;SDS011;40902;45.116;21.296;2022-12-07T14:56:26;19.65;;;12.73;;
55007;SDS011;40902;45.116;21.296;2022-12-07T14:58:53;22.58;;;14.65;;
55007;SDS011;40902;45.116;21.296;2022-12-07T15:01:18;20.40;;;11.57;;
55007;SDS011;40902;45.116;21.296;2022-12-07T15:03:44;17.60;;;11.05;;
55007;SDS011;40902;45.116;21.296;2022-12-07T15:06:12;15.98;;;9.98;;
55007;SDS011;40902;45.116;21.296;2022-12-07T15:08:40;16.00;;;9.07;;
55007;SDS011;40902;45.116;21.296;2022-12-07T15:11:06;12.60;;;7.95;;
55007;SDS011;40902;45.116;21.296;2022-12-07T15:13:37;9.70;;;6.95;;
55007;SDS011;40902;45.116;21.296;2022-12-07T15:18:46;10.10;;;7.00;;
55007;SDS011;40902;45.116;21.296;2022-12-07T15:21:13;10.93;;;7.22;;
55007;SDS011;40902;45.116;21.296;2022-12-07T15:23:39;22.77;;;12.55;;
55007;SDS011;40902;45.116;21.296;2022-12-07T15:26:05;12.40;;;8.15;;
55007;SDS011;40902;45.116;21.296;2022-12-07T15:28:33;13.02;;;8.60;;
55007;SDS011;40902;45.116;21.296;2022-12-07T15:30:58;18.60;;;11.32;;
55007;SDS011;40902;45.116;21.296;2022-12-07T15:33:24;21.98;;;15.32;;
55007;SDS011;40902;45.116;21.296;2022-12-07T15:35:50;25.92;;;18.30;;
55007;SDS011;40902;45.116;21.296;2022-12-07T15:38:16;24.13;;;16.92;;
55007;SDS011;40902;45.116;21.296;2022-12-07T15:40:41;22.95;;;15.43;;
55007;SDS011;40902;45.116;21.296;2022-12-07T15:43:10;25.50;;;19.23;;
55007;SDS011;40902;45.116;21.296;2022-12-07T15:45:56;21.73;;;16.73;;
55007;SDS011;40902;45.116;21.296;2022-12-07T15:48:22;24.30;;;16.45;;
55007;SDS011;40902;45.116;21.296;2022-12-07T15:50:48;30.75;;;22.60;;
55007;SDS011;40902;45.116;21.296;2022-12-07T15:53:13;28.42;;;19.20;;
55007;SDS011;40902;45.116;21.296;2022-12-07T15:55:39;32.22;;;22.92;;
55007;SDS011;40902;45.116;21.296;2022-12-07T15:58:05;30.77;;;21.50;;
55007;SDS011;40902;45.116;21.296;2022-12-07T16:00:31;28.77;;;19.45;;
55007;SDS011;40902;45.116;21.296;2022-12-07T16:02:57;28.38;;;19.60;;
55007;SDS011;40902;45.116;21.296;2022-12-07T16:05:23;25.42;;;17.23;;
55007;SDS011;40902;45.116;21.296;2022-12-07T16:07:48;19.75;;;13.43;;
55007;SDS011;40902;45.116;21.296;2022-12-07T16:10:14;22.90;;;15.93;;
55007;SDS011;40902;45.116;21.296;2022-12-07T16:12:40;22.70;;;15.05;;
55007;SDS011;40902;45.116;21.296;2022-12-07T16:15:06;19.60;;;13.70;;
55007;SDS011;40902;45.116;21.296;2022-12-07T16:17:32;22.00;;;14.25;;
55007;SDS011;40902;45.116;21.296;2022-12-07T16:19:57;24.20;;;17.92;;
55007;SDS011;40902;45.116;21.296;2022-12-07T16:22:23;22.88;;;16.13;;
55007;SDS011;40902;45.116;21.296;2022-12-07T16:24:49;21.98;;;14.77;;
55007;SDS011;40902;45.116;21.296;2022-12-07T16:27:15;26.20;;;17.83;;
55007;SDS011;40902;45.116;21.296;2022-12-07T16:29:41;34.95;;;23.65;;
55007;SDS011;40902;45.116;21.296;2022-12-07T16:32:07;48.63;;;31.42;;
55007;SDS011;40902;45.116;21.296;2022-12-07T16:34:32;57.92;;;36.83;;
55007;SDS011;40902;45.116;21.296;2022-12-07T16:36:58;57.97;;;38.92;;
55007;SDS011;40902;45.116;21.296;2022-12-07T16:39:24;57.83;;;39.13;;
55007;SDS011;40902;45.116;21.296;2022-12-07T16:41:50;52.70;;;34.85;;
55007;SDS011;40902;45.116;21.296;2022-12-07T16:44:15;53.30;;;33.95;;
55007;SDS011;40902;45.116;21.296;2022-12-07T16:46:41;47.33;;;32.70;;
55007;SDS011;40902;45.116;21.296;2022-12-07T16:49:13;42.72;;;26.85;;
55007;SDS011;40902;45.116;21.296;2022-12-07T16:51:40;40.00;;;25.10;;
55007;SDS011;40902;45.116;21.296;2022-12-07T16:54:09;38.75;;;24.58;;